Terminal Aerodrome Forecast
Issued by NWS Charleston, WV

Current Version | Previous Version | Text Only | Print | Product List | Glossary On
Versions: 1 2 3 4 5 6 7 8 9 10 11 12 13 14 15 16 17
000
FTUS41 KRLX 181700
TAFHTS
TAF
KHTS 181723Z 1818/1918 24006KT P6SM SCT060 SCT150
     FM182100 27005KT P6SM SCT060
     FM190100 00000KT P6SM SCT050
     FM190700 00000KT P6SM SCT250
     FM191300 03004KT P6SM SKC=

USA.gov is the U.S. government's official web portal to all federal, state and local government web resources and services.